createdAt,value
2024-02-19T00:00:52.310Z,0.60
2024-02-19T00:03:20.030Z,0.60
2024-02-19T00:05:51.545Z,0.90
2024-02-19T00:08:23.346Z,0.50
2024-02-19T00:10:56.209Z,0.55
2024-02-19T00:13:26.183Z,0.63
2024-02-19T00:15:57.209Z,0.70
2024-02-19T00:18:28.416Z,0.50
2024-02-19T00:20:58.199Z,0.57
2024-02-19T00:23:28.800Z,0.50
2024-02-19T00:25:58.708Z,0.53
2024-02-19T00:28:28.532Z,0.60
2024-02-19T00:30:58.505Z,0.70
2024-02-19T00:33:28.616Z,0.93
2024-02-19T00:35:58.620Z,0.65
2024-02-19T00:38:28.730Z,0.70
2024-02-19T00:40:58.730Z,0.98
2024-02-19T00:43:30.400Z,0.70
2024-02-19T00:46:00.960Z,0.75
2024-02-19T00:48:31.100Z,0.70
2024-02-19T00:51:01.091Z,0.70
2024-02-19T00:53:31.091Z,0.68
2024-02-19T00:56:00.936Z,0.70
2024-02-19T00:58:30.925Z,0.60
2024-02-19T01:01:01.234Z,0.75
2024-02-19T01:03:31.299Z,0.63
2024-02-19T01:06:01.237Z,0.50
2024-02-19T01:08:31.330Z,0.70
2024-02-19T01:11:01.631Z,0.80
2024-02-19T01:13:31.669Z,0.50
2024-02-19T01:16:04.065Z,0.55
2024-02-19T01:18:35.624Z,0.50
2024-02-19T01:21:05.745Z,0.60
2024-02-19T01:23:35.788Z,0.60
2024-02-19T01:26:06.845Z,0.50
2024-02-19T01:28:39.862Z,0.60
2024-02-19T01:31:10.366Z,0.57
2024-02-19T01:33:40.756Z,0.70
2024-02-19T01:36:11.071Z,0.75
2024-02-19T01:38:40.775Z,0.60
2024-02-19T01:41:10.605Z,0.60
2024-02-19T01:43:40.420Z,0.60
2024-02-19T01:46:10.637Z,0.50
2024-02-19T01:48:41.621Z,0.50
2024-02-19T01:51:11.738Z,0.75
2024-02-19T01:53:43.322Z,0.60
2024-02-19T01:56:13.180Z,0.70
2024-02-19T01:58:43.320Z,0.50
2024-02-19T02:01:14.908Z,0.87
2024-02-19T02:03:46.773Z,0.70
2024-02-19T02:06:17.108Z,0.60
2024-02-19T02:08:48.450Z,0.60
2024-02-19T02:11:19.654Z,0.68
2024-02-19T02:13:51.978Z,0.80
2024-02-19T02:16:30.879Z,0.80
2024-02-19T02:19:01.178Z,0.80
2024-02-19T02:21:31.868Z,0.60
2024-02-19T02:24:01.882Z,0.70
2024-02-19T02:26:33.298Z,0.80
2024-02-19T02:29:03.226Z,0.80
2024-02-19T02:31:33.968Z,0.80
2024-02-19T02:34:04.164Z,0.70
2024-02-19T02:36:34.589Z,0.70
2024-02-19T02:39:06.098Z,0.73
2024-02-19T02:41:39.362Z,0.80
2024-02-19T02:44:10.140Z,0.70
2024-02-19T02:46:40.126Z,0.90
2024-02-19T02:49:10.362Z,0.80
2024-02-19T02:51:40.616Z,0.85
2024-02-19T02:54:11.664Z,1.32
2024-02-19T02:56:41.570Z,1.02
2024-02-19T02:59:11.655Z,1.00
2024-02-19T03:01:43.283Z,1.00
2024-02-19T03:04:14.794Z,1.12
2024-02-19T03:06:44.902Z,1.10
2024-02-19T03:09:16.225Z,1.10
2024-02-19T03:11:46.681Z,1.05
2024-02-19T03:14:18.564Z,1.10
2024-02-19T03:16:52.185Z,1.20
2024-02-19T03:19:23.963Z,0.82
2024-02-19T03:21:54.413Z,1.12
2024-02-19T03:24:26.016Z,1.20
2024-02-19T03:26:57.658Z,1.30
2024-02-19T03:29:28.934Z,1.20
2024-02-19T03:31:59.031Z,1.20
2024-02-19T03:34:33.042Z,1.02
2024-02-19T03:39:33.469Z,1.12
2024-02-19T03:42:04.744Z,0.90
2024-02-19T03:44:36.018Z,1.30
2024-02-19T03:47:06.029Z,1.20
2024-02-19T03:49:36.412Z,0.90
2024-02-19T03:52:06.625Z,0.80
2024-02-19T03:54:36.714Z,1.03
2024-02-19T03:57:07.108Z,0.73
2024-02-19T03:59:39.684Z,1.10
2024-02-19T04:02:10.315Z,0.62
2024-02-19T04:04:40.622Z,0.85
2024-02-19T04:07:11.403Z,0.80
2024-02-19T04:09:41.381Z,0.80
2024-02-19T04:12:11.895Z,1.07
2024-02-19T04:14:44.924Z,0.80
2024-02-19T04:17:14.872Z,0.88
2024-02-19T04:19:45.067Z,0.90
2024-02-19T04:22:15.366Z,0.98
2024-02-19T04:24:45.255Z,0.80
2024-02-19T04:27:16.679Z,0.80
2024-02-19T04:29:47.821Z,0.84
2024-02-19T04:32:20.148Z,0.90
2024-02-19T04:34:50.258Z,0.70
2024-02-19T04:37:21.491Z,0.80
2024-02-19T04:39:52.339Z,0.60
2024-02-19T04:42:22.479Z,0.70
2024-02-19T04:44:52.874Z,0.70
2024-02-19T04:47:22.633Z,0.60
2024-02-19T04:49:52.920Z,0.90
2024-02-19T04:52:23.040Z,1.00
2024-02-19T04:54:53.673Z,0.87
2024-02-19T04:57:23.716Z,0.60
2024-02-19T04:59:54.743Z,0.80
2024-02-19T05:02:24.609Z,0.70
2024-02-19T05:04:54.630Z,0.57
2024-02-19T05:07:24.863Z,0.70
2024-02-19T05:09:56.333Z,0.80
2024-02-19T05:12:26.214Z,0.75
2024-02-19T05:14:57.761Z,0.73
2024-02-19T05:17:28.019Z,0.70
2024-02-19T05:19:58.217Z,0.50
2024-02-19T05:22:28.455Z,0.90
2024-02-19T05:24:58.684Z,0.68
2024-02-19T05:27:28.860Z,0.70
2024-02-19T05:29:58.769Z,0.85
2024-02-19T05:32:28.912Z,0.60
2024-02-19T05:35:00.579Z,0.70
2024-02-19T05:37:30.555Z,0.75
2024-02-19T05:40:00.810Z,0.70
2024-02-19T05:42:31.129Z,0.78
2024-02-19T05:45:02.015Z,0.70
2024-02-19T05:47:32.377Z,0.63
2024-02-19T05:50:02.606Z,0.70
2024-02-19T05:52:32.729Z,0.60
2024-02-19T05:55:04.098Z,0.93
2024-02-19T05:57:34.097Z,0.68
2024-02-19T06:00:05.266Z,0.78
2024-02-19T06:02:35.720Z,0.60
2024-02-19T06:07:39.261Z,0.70
2024-02-19T06:10:10.594Z,0.70
2024-02-19T06:12:41.143Z,0.65
2024-02-19T06:15:11.862Z,0.65
2024-02-19T06:17:41.833Z,0.60
2024-02-19T06:20:12.830Z,0.50
2024-02-19T06:22:42.930Z,0.40
2024-02-19T06:25:13.489Z,0.62
2024-02-19T06:27:43.522Z,0.50
2024-02-19T06:30:14.059Z,0.65
2024-02-19T06:32:44.059Z,0.60
2024-02-19T06:35:14.087Z,0.50
2024-02-19T06:37:44.337Z,0.60
2024-02-19T06:40:15.529Z,0.60
2024-02-19T06:42:46.598Z,0.60
2024-02-19T06:45:17.204Z,0.60
2024-02-19T06:47:47.343Z,0.55
2024-02-19T06:50:18.153Z,0.66
2024-02-19T06:52:48.613Z,0.60
2024-02-19T06:55:19.535Z,0.50
2024-02-19T06:57:50.820Z,0.50
2024-02-19T07:00:22.351Z,0.60
2024-02-19T07:02:52.644Z,0.50
2024-02-19T07:05:23.622Z,0.47
2024-02-19T07:07:53.784Z,0.50
2024-02-19T07:10:23.815Z,0.40
2024-02-19T07:12:53.628Z,0.60
2024-02-19T07:15:23.621Z,0.50
2024-02-19T07:17:53.877Z,0.40
2024-02-19T07:20:24.526Z,0.40
2024-02-19T07:22:54.695Z,0.53
2024-02-19T07:25:24.780Z,0.60
2024-02-19T07:27:54.786Z,0.40
2024-02-19T07:30:24.972Z,0.50
2024-02-19T07:32:55.091Z,0.60
2024-02-19T07:35:26.044Z,0.50
2024-02-19T07:37:56.159Z,0.50
2024-02-19T07:40:29.883Z,0.50
2024-02-19T07:43:00.279Z,0.50
2024-02-19T07:45:30.560Z,0.42
2024-02-19T07:48:02.143Z,0.50
2024-02-19T07:50:33.472Z,0.30
2024-02-19T07:53:03.646Z,0.30
2024-02-19T07:55:34.166Z,0.40
2024-02-19T07:58:04.233Z,0.42
2024-02-19T08:00:34.234Z,0.50
2024-02-19T08:03:06.003Z,0.45
2024-02-19T08:05:35.973Z,0.50
2024-02-19T08:08:06.382Z,0.40
2024-02-19T08:10:37.496Z,0.40
2024-02-19T08:13:08.840Z,0.30
2024-02-19T08:15:41.143Z,0.40
2024-02-19T08:18:12.342Z,0.50
2024-02-19T08:20:42.818Z,0.40
2024-02-19T08:23:12.840Z,0.42
2024-02-19T08:25:44.117Z,0.30
2024-02-19T08:28:14.104Z,0.40
2024-02-19T08:30:44.135Z,0.37
2024-02-19T08:33:14.549Z,0.30
2024-02-19T08:35:44.854Z,0.60
2024-02-19T08:38:15.991Z,0.30
2024-02-19T08:40:45.880Z,0.40
2024-02-19T08:43:17.044Z,0.40
2024-02-19T08:45:47.752Z,0.50
2024-02-19T08:48:23.003Z,0.30
2024-02-19T08:50:55.420Z,0.37
2024-02-19T08:53:25.689Z,0.50
2024-02-19T08:55:55.503Z,0.30
2024-02-19T08:58:25.670Z,0.50
2024-02-19T09:00:55.733Z,0.42
2024-02-19T09:03:27.010Z,0.50
2024-02-19T09:05:58.408Z,0.30
2024-02-19T09:08:28.661Z,0.40
2024-02-19T09:10:59.690Z,0.40
2024-02-19T09:13:29.713Z,0.40
2024-02-19T09:15:59.840Z,0.30
2024-02-19T09:18:30.516Z,0.50
2024-02-19T09:21:00.503Z,0.37
2024-02-19T09:23:31.427Z,0.42
2024-02-19T09:26:01.679Z,0.50
2024-02-19T09:28:31.784Z,0.40
2024-02-19T09:31:01.875Z,0.40
2024-02-19T09:33:31.641Z,0.30
2024-02-19T09:36:01.430Z,0.53
2024-02-19T09:38:32.883Z,0.30
2024-02-19T09:41:04.175Z,0.40
2024-02-19T09:43:34.366Z,0.50
2024-02-19T09:46:09.026Z,0.40
2024-02-19T09:48:39.926Z,0.50
2024-02-19T09:51:10.506Z,0.33
2024-02-19T09:53:41.580Z,0.30
2024-02-19T09:56:12.811Z,0.30
2024-02-19T09:58:43.715Z,0.55
2024-02-19T10:01:13.884Z,0.40
2024-02-19T10:03:44.164Z,0.35
2024-02-19T10:06:14.357Z,0.40
2024-02-19T10:08:44.246Z,0.40
2024-02-19T10:11:14.449Z,0.30
2024-02-19T10:13:44.342Z,0.40
2024-02-19T10:16:15.470Z,0.47
2024-02-19T10:18:47.153Z,0.40
2024-02-19T10:21:19.273Z,0.30
2024-02-19T10:23:50.188Z,0.40
2024-02-19T10:26:21.119Z,0.40
2024-02-19T10:28:56.784Z,0.40
2024-02-19T10:31:27.514Z,0.33
2024-02-19T10:33:59.392Z,0.50
2024-02-19T10:36:29.578Z,0.40
2024-02-19T10:38:59.598Z,0.40
2024-02-19T10:41:30.456Z,0.40
2024-02-19T10:44:02.021Z,0.40
2024-02-19T10:46:32.478Z,0.40
2024-02-19T10:49:02.560Z,0.35
2024-02-19T10:51:33.472Z,0.30
2024-02-19T10:54:07.086Z,0.30
2024-02-19T10:56:41.882Z,0.40
2024-02-19T10:59:12.394Z,0.40
2024-02-19T11:01:46.577Z,0.60
2024-02-19T11:04:22.410Z,0.50
2024-02-19T11:06:57.366Z,0.44
2024-02-19T11:09:31.016Z,0.30
2024-02-19T11:12:03.068Z,0.37
2024-02-19T11:14:34.656Z,0.50
2024-02-19T11:17:04.899Z,0.35
2024-02-19T11:19:42.972Z,0.30
2024-02-19T11:22:15.064Z,0.30
2024-02-19T11:24:45.226Z,0.40
2024-02-19T11:27:15.218Z,0.40
2024-02-19T11:29:48.355Z,0.30
2024-02-19T11:32:21.821Z,0.30
2024-02-19T11:34:53.140Z,0.50
2024-02-19T11:37:23.238Z,0.50
2024-02-19T11:39:53.229Z,0.50
2024-02-19T11:42:24.967Z,0.43
2024-02-19T11:44:54.880Z,0.50
2024-02-19T11:47:26.963Z,0.55
2024-02-19T11:49:57.965Z,0.40
2024-02-19T11:52:27.943Z,0.40
2024-02-19T11:55:00.966Z,0.40
2024-02-19T11:57:30.704Z,0.45
2024-02-19T12:00:03.000Z,0.50
2024-02-19T12:05:23.984Z,0.35
2024-02-19T12:07:54.069Z,0.42
2024-02-19T12:10:24.313Z,0.30
2024-02-19T12:12:56.054Z,0.30
2024-02-19T12:15:26.556Z,0.47
2024-02-19T12:17:56.627Z,0.40
2024-02-19T12:20:26.633Z,0.30
2024-02-19T12:22:56.822Z,0.28
2024-02-19T12:25:27.610Z,0.30
2024-02-19T12:27:57.434Z,0.40
2024-02-19T12:30:27.502Z,0.40
2024-02-19T12:33:00.265Z,0.30
2024-02-19T12:35:30.192Z,0.40
2024-02-19T12:38:00.429Z,0.40
2024-02-19T12:40:30.496Z,0.30
2024-02-19T12:43:00.749Z,0.40
2024-02-19T12:45:30.495Z,0.30
2024-02-19T12:48:00.591Z,0.30
2024-02-19T12:50:31.333Z,0.37
2024-02-19T12:53:02.843Z,0.30
2024-02-19T12:55:33.190Z,0.30
2024-02-19T12:58:03.292Z,0.37
2024-02-19T13:00:33.304Z,0.37
2024-02-19T13:03:03.262Z,0.30
2024-02-19T13:05:33.258Z,0.30
2024-02-19T13:08:03.512Z,0.30
2024-02-19T13:10:35.252Z,0.35
2024-02-19T13:13:05.718Z,0.40
2024-02-19T13:15:37.619Z,0.30
2024-02-19T13:18:08.060Z,0.30
2024-02-19T13:20:38.950Z,0.40
2024-02-19T13:23:08.923Z,0.35
2024-02-19T13:25:39.145Z,0.30
2024-02-19T13:28:13.129Z,0.40
2024-02-19T13:30:43.453Z,0.30
2024-02-19T13:33:13.625Z,0.30
2024-02-19T13:35:43.888Z,0.30
2024-02-19T13:38:14.898Z,0.30
2024-02-19T13:40:45.023Z,0.50
2024-02-19T13:43:16.424Z,0.30
2024-02-19T13:46:08.254Z,0.30
2024-02-19T13:48:38.950Z,0.37
2024-02-19T13:51:08.873Z,0.27
2024-02-19T13:53:39.143Z,0.40
2024-02-19T13:56:10.385Z,0.30
2024-02-19T13:58:40.363Z,0.40
2024-02-19T14:01:12.077Z,0.30
2024-02-19T14:03:42.222Z,0.40
2024-02-19T14:06:14.845Z,0.35
2024-02-19T14:08:48.232Z,0.30
2024-02-19T14:11:18.458Z,0.43
2024-02-19T14:13:57.540Z,0.30
2024-02-19T14:16:22.189Z,0.45
2024-02-19T14:18:53.058Z,0.40
2024-02-19T14:21:22.980Z,0.30
2024-02-19T14:23:54.381Z,0.40
2024-02-19T14:26:26.416Z,0.42
2024-02-19T14:28:57.796Z,0.45
2024-02-19T14:31:29.367Z,0.50
2024-02-19T14:33:59.538Z,0.23
2024-02-19T14:36:29.981Z,0.40
2024-02-19T14:39:00.181Z,0.30
2024-02-19T14:41:31.411Z,0.40
2024-02-19T14:44:01.665Z,0.30
2024-02-19T14:46:31.611Z,0.40
2024-02-19T14:49:01.845Z,0.42
2024-02-19T14:51:32.250Z,0.40
2024-02-19T14:54:03.760Z,0.40
2024-02-19T14:56:34.525Z,0.40
2024-02-19T14:59:06.264Z,0.50
2024-02-19T15:01:36.424Z,0.40
2024-02-19T15:04:07.146Z,0.35
2024-02-19T15:06:37.013Z,0.42
2024-02-19T15:09:08.628Z,0.30
2024-02-19T15:11:40.196Z,0.35
2024-02-19T15:14:10.864Z,0.33
2024-02-19T15:16:40.990Z,0.40
2024-02-19T15:19:14.256Z,0.45
2024-02-19T15:21:44.011Z,0.50
2024-02-19T15:24:14.196Z,0.30
2024-02-19T15:26:44.256Z,0.30
2024-02-19T15:29:17.084Z,0.40
2024-02-19T15:31:47.078Z,0.40
2024-02-19T15:34:17.022Z,0.40
2024-02-19T15:36:48.620Z,0.40
2024-02-19T15:39:18.974Z,0.30
2024-02-19T15:41:51.110Z,0.40
2024-02-19T15:44:22.531Z,0.30
2024-02-19T15:46:54.834Z,0.35
2024-02-19T15:49:27.059Z,0.30
2024-02-19T15:51:57.984Z,0.37
2024-02-19T15:54:30.568Z,0.30
2024-02-19T15:57:01.546Z,0.40
2024-02-19T15:59:31.770Z,0.30
2024-02-19T16:02:01.912Z,0.40
2024-02-19T16:04:31.951Z,0.30
2024-02-19T16:07:02.159Z,0.40
2024-02-19T16:09:32.826Z,0.37
2024-02-19T16:12:02.698Z,0.40
2024-02-19T16:14:33.441Z,0.30
2024-02-19T16:17:04.338Z,0.20
2024-02-19T16:19:34.412Z,0.30
2024-02-19T16:22:04.860Z,0.30
2024-02-19T16:24:36.600Z,0.35
2024-02-19T16:27:07.935Z,0.45
2024-02-19T16:29:38.889Z,0.40
2024-02-19T16:32:09.267Z,0.40
2024-02-19T16:34:43.727Z,0.50
2024-02-19T16:37:13.483Z,0.20
2024-02-19T16:39:45.104Z,0.30
2024-02-19T16:42:15.055Z,0.30
2024-02-19T16:44:45.909Z,0.40
2024-02-19T16:47:16.051Z,0.30
2024-02-19T16:49:47.543Z,0.37
2024-02-19T16:52:17.603Z,0.30
2024-02-19T16:54:47.705Z,0.30
2024-02-19T16:57:17.916Z,0.33
2024-02-19T16:59:47.848Z,0.42
2024-02-19T17:02:18.001Z,0.40
2024-02-19T17:04:49.472Z,0.30
2024-02-19T17:07:20.429Z,0.40
2024-02-19T17:09:50.612Z,0.40
2024-02-19T17:12:20.798Z,0.30
2024-02-19T17:14:52.120Z,0.40
2024-02-19T17:17:23.411Z,0.40
2024-02-19T17:19:53.804Z,0.20
2024-02-19T17:22:24.998Z,0.30
2024-02-19T17:24:56.035Z,0.30
2024-02-19T17:27:26.871Z,0.30
2024-02-19T17:29:57.027Z,0.30
2024-02-19T17:32:28.056Z,0.33
2024-02-19T17:34:59.571Z,0.30
2024-02-19T17:37:30.227Z,0.30
2024-02-19T17:40:00.360Z,0.35
2024-02-19T17:42:33.476Z,0.30
2024-02-19T17:45:03.598Z,0.30
2024-02-19T17:47:34.027Z,0.30
2024-02-19T17:50:05.104Z,0.30
2024-02-19T17:52:35.098Z,0.40
2024-02-19T17:55:05.121Z,0.30
2024-02-19T17:57:36.548Z,0.30
2024-02-19T18:00:07.072Z,0.30
2024-02-19T18:02:37.111Z,0.30
2024-02-19T18:05:07.454Z,0.30
2024-02-19T18:07:37.367Z,0.20
2024-02-19T18:10:09.449Z,0.40
2024-02-19T18:12:39.656Z,0.35
2024-02-19T18:15:10.427Z,0.30
2024-02-19T18:17:40.356Z,0.30
2024-02-19T18:20:11.806Z,0.30
2024-02-19T18:22:41.966Z,0.28
2024-02-19T18:25:12.295Z,0.33
2024-02-19T18:27:42.230Z,0.37
2024-02-19T18:30:14.024Z,0.30
2024-02-19T18:32:44.297Z,0.30
2024-02-19T18:35:14.408Z,0.30
2024-02-19T18:37:45.504Z,0.30
2024-02-19T18:40:16.041Z,0.30
2024-02-19T18:42:46.870Z,0.20
2024-02-19T18:45:16.860Z,0.30
2024-02-19T18:47:47.968Z,0.40
2024-02-19T18:50:17.922Z,0.40
2024-02-19T18:52:48.097Z,0.30
2024-02-19T18:55:19.277Z,0.37
2024-02-19T18:57:52.645Z,0.20
2024-02-19T19:00:22.981Z,0.40
2024-02-19T19:02:54.484Z,0.30
2024-02-19T19:05:27.301Z,0.30
2024-02-19T19:07:58.378Z,0.30
2024-02-19T19:10:29.524Z,0.23
2024-02-19T19:12:59.801Z,0.30
2024-02-19T19:15:30.781Z,0.22
2024-02-19T19:18:04.447Z,0.30
2024-02-19T19:20:34.602Z,0.40
2024-02-19T19:23:05.650Z,0.30
2024-02-19T19:25:35.834Z,0.30
2024-02-19T19:28:06.334Z,0.30
2024-02-19T19:30:36.433Z,0.37
2024-02-19T19:33:06.754Z,0.30
2024-02-19T19:35:38.159Z,0.30
2024-02-19T19:38:08.237Z,0.23
2024-02-19T19:40:39.692Z,0.20
2024-02-19T19:43:09.805Z,0.30
2024-02-19T19:45:40.213Z,0.30
2024-02-19T19:48:10.724Z,0.30
2024-02-19T19:50:40.800Z,0.33
2024-02-19T19:53:11.071Z,0.33
2024-02-19T19:55:41.225Z,0.30
2024-02-19T19:58:17.325Z,0.40
2024-02-19T20:00:43.477Z,0.25
2024-02-19T20:03:13.505Z,0.20
2024-02-19T20:05:43.816Z,0.20
2024-02-19T20:08:13.821Z,0.30
2024-02-19T20:10:44.004Z,0.30
2024-02-19T20:13:14.189Z,0.30
2024-02-19T20:15:44.699Z,0.30
2024-02-19T20:18:16.178Z,0.27
2024-02-19T20:20:46.237Z,0.30
2024-02-19T20:23:17.360Z,0.20
2024-02-19T20:25:47.548Z,0.20
2024-02-19T20:28:17.608Z,0.35
2024-02-19T20:30:48.892Z,0.30
2024-02-19T20:33:19.111Z,0.30
2024-02-19T20:35:49.334Z,0.28
2024-02-19T20:38:19.692Z,0.27
2024-02-19T20:40:49.828Z,0.20
2024-02-19T20:43:20.400Z,0.20
2024-02-19T20:45:54.136Z,0.20
2024-02-19T20:48:27.618Z,0.20
2024-02-19T20:51:00.397Z,0.20
2024-02-19T20:53:30.452Z,0.20
2024-02-19T20:56:00.474Z,0.20
2024-02-19T20:58:30.515Z,0.20
2024-02-19T21:01:00.613Z,0.30
2024-02-19T21:03:36.033Z,0.20
2024-02-19T21:06:02.121Z,0.30
2024-02-19T21:08:31.978Z,0.25
2024-02-19T21:11:03.660Z,0.30
2024-02-19T21:13:35.421Z,0.30
2024-02-19T21:16:05.717Z,0.20
2024-02-19T21:18:46.287Z,0.30
2024-02-19T21:21:12.174Z,0.30
2024-02-19T21:23:39.830Z,0.30
2024-02-19T21:26:10.023Z,0.20
2024-02-19T21:28:39.767Z,0.30
2024-02-19T21:31:09.695Z,0.20
2024-02-19T21:33:39.821Z,0.20
2024-02-19T21:36:11.545Z,0.20
2024-02-19T21:38:41.595Z,0.30
2024-02-19T21:41:11.553Z,0.20
2024-02-19T21:43:41.475Z,0.30
2024-02-19T21:46:11.495Z,0.20
2024-02-19T21:48:43.658Z,0.30
2024-02-19T21:51:15.135Z,0.20
2024-02-19T21:53:45.146Z,0.20
2024-02-19T21:56:15.323Z,0.27
2024-02-19T21:58:45.043Z,0.27
2024-02-19T22:01:14.932Z,0.20
2024-02-19T22:03:45.092Z,0.20
2024-02-19T22:06:15.095Z,0.20
2024-02-19T22:08:45.072Z,0.20
2024-02-19T22:11:16.648Z,0.20
2024-02-19T22:13:46.790Z,0.20
2024-02-19T22:16:17.517Z,0.20
2024-02-19T22:18:49.102Z,0.20
2024-02-19T22:21:19.073Z,0.30
2024-02-19T22:23:50.183Z,0.30
2024-02-19T22:26:20.226Z,0.30
2024-02-19T22:28:50.248Z,0.30
2024-02-19T22:31:23.200Z,0.20
2024-02-19T22:33:53.372Z,0.25
2024-02-19T22:36:23.490Z,0.40
2024-02-19T22:38:53.658Z,0.20
2024-02-19T22:41:23.670Z,0.25
2024-02-19T22:43:54.064Z,0.20
2024-02-19T22:46:24.012Z,0.30
2024-02-19T22:48:54.397Z,0.20
2024-02-19T22:51:24.642Z,0.20
2024-02-19T22:53:54.661Z,0.20
2024-02-19T22:56:26.689Z,0.30
2024-02-19T22:59:06.923Z,0.20
2024-02-19T23:01:29.781Z,0.20
2024-02-19T23:04:01.539Z,0.28
2024-02-19T23:06:31.582Z,0.20
2024-02-19T23:09:02.092Z,0.20
2024-02-19T23:11:32.112Z,0.20
2024-02-19T23:14:01.961Z,0.20
2024-02-19T23:16:31.876Z,0.20
2024-02-19T23:19:02.137Z,0.30
2024-02-19T23:21:32.268Z,0.20
2024-02-19T23:24:02.223Z,0.20
2024-02-19T23:26:32.195Z,0.20
2024-02-19T23:29:02.112Z,0.20
2024-02-19T23:31:32.571Z,0.17
2024-02-19T23:34:04.025Z,0.20
2024-02-19T23:36:35.599Z,0.20
2024-02-19T23:39:06.623Z,0.20
2024-02-19T23:41:38.158Z,0.17
2024-02-19T23:44:11.162Z,0.30
2024-02-19T23:46:41.096Z,0.20
2024-02-19T23:49:13.617Z,0.30
2024-02-19T23:51:47.142Z,0.30
2024-02-19T23:54:18.489Z,0.30
2024-02-19T23:56:48.809Z,0.20
2024-02-19T23:59:19.006Z,0.20
